Tuscaloosa Regional Airport
KTCL : now visible

Airfield :











YOU CAN JOIN US ON...

 
LOGIN :

Register | Disclaimer

   EN    FR    IT 

 









Legend :    VFR   Marginal VFR   IFR   Intensive IFR   Very Intensive IFR
Visi :
Ceiling :
>= 8 km
>= 3000ft
5 to 8 km
1000 to 3000 ft
1500m to 5 km
500 to 1000 ft
800 to 1500m
200 to 500 ft
< 800m
< 200 ft
Symbols :   Thunderstorms  Fog  Heavy snow  Heavy precipitations  Wind > 20 kt






- Airport Elevation : 170 ft
- IATA code : TCL


KTCL - Tuscaloosa Regional

CURRENT METAR :
  • 062053Z 18007KT 10SM CLR 28/13 A3003 RMK AO2 SLP169 T02830133 56017

EXPIRED METARs :
  • 061953Z 19010KT 10SM CLR 29/13 A3005 RMK AO2 SLP172 T02890133
  • 061853Z 17005KT 10SM FEW060 SCT080 28/14 A3005 RMK AO2 SLP175 T02830139

TAF KTCL
Valid from the 06 at 18:00 until the 07 at 18:00 UTC


061736Z 0618/0718 VRB04KT P6SM BKN200



MET'MAP, your aeronautical weather chart ! - Copyright ORBIFLY December 2007 - Disclaimer

ORBIFLY MET'MAP TEAM :

Programming & Development : Alexandra Zaïnal
Concept & original design : Baudouin d'Aumeries
Assistance for programming : Marc-Olivier Méhu
Technical & hardware support : Manuel Goepfert

Contact : metmap@orbifly.com




SOURCES & CREDITS :

   NOAA       Earth
Advisory